createdAt,value
2019-05-23T00:01:05.562Z,2.80
2019-05-23T00:03:59.218Z,2.80
2019-05-23T00:06:47.486Z,2.60
2019-05-23T00:09:35.289Z,2.60
2019-05-23T00:12:16.404Z,2.60
2019-05-23T00:14:55.478Z,2.40
2019-05-23T00:17:26.999Z,2.60
2019-05-23T00:19:57.103Z,2.90
2019-05-23T00:22:27.250Z,2.43
2019-05-23T00:24:57.221Z,2.60
2019-05-23T00:27:30.858Z,2.57
2019-05-23T00:30:03.313Z,2.93
2019-05-23T00:32:38.824Z,3.07
2019-05-23T00:35:09.787Z,2.83
2019-05-23T00:37:43.150Z,2.60
2019-05-23T00:40:13.509Z,2.50
2019-05-23T00:42:43.443Z,2.67
2019-05-23T00:45:13.363Z,2.77
2019-05-23T00:47:43.288Z,2.63
2019-05-23T00:50:13.763Z,3.17
2019-05-23T00:52:43.867Z,2.70
2019-05-23T00:55:15.397Z,3.00
2019-05-23T00:57:45.242Z,2.73
2019-05-23T01:00:17.445Z,2.87
2019-05-23T01:02:47.986Z,2.80
2019-05-23T01:05:18.834Z,2.90
2019-05-23T01:07:48.705Z,2.67
2019-05-23T01:10:19.378Z,2.73
2019-05-23T01:12:50.027Z,2.83
2019-05-23T01:15:20.353Z,3.17
2019-05-23T01:17:50.686Z,2.80
2019-05-23T01:20:24.878Z,2.90
2019-05-23T01:22:55.632Z,3.00
2019-05-23T01:25:25.770Z,2.63
2019-05-23T01:27:55.894Z,2.77
2019-05-23T01:30:28.362Z,2.80
2019-05-23T01:32:59.282Z,2.97
2019-05-23T01:35:29.318Z,2.57
2019-05-23T01:38:03.404Z,2.70
2019-05-23T01:40:32.042Z,2.90
2019-05-23T01:43:02.171Z,2.70
2019-05-23T01:45:33.666Z,2.80
2019-05-23T01:48:03.963Z,2.77
2019-05-23T01:50:33.846Z,2.80
2019-05-23T01:53:04.903Z,2.90
2019-05-23T01:55:35.361Z,3.00
2019-05-23T01:58:05.505Z,2.83
2019-05-23T02:00:35.365Z,2.80
2019-05-23T02:03:06.731Z,2.90
2019-05-23T02:05:36.767Z,3.10
2019-05-23T02:08:07.942Z,2.87
2019-05-23T02:10:38.235Z,2.90
2019-05-23T02:13:08.715Z,2.77
2019-05-23T02:15:39.984Z,2.77
2019-05-23T02:18:10.031Z,2.70
2019-05-23T02:20:39.938Z,2.70
2019-05-23T02:23:11.197Z,2.90
2019-05-23T02:25:42.778Z,2.90
2019-05-23T02:28:13.736Z,2.60
2019-05-23T02:30:43.655Z,2.80
2019-05-23T02:33:13.991Z,2.80
2019-05-23T02:35:44.691Z,2.67
2019-05-23T02:38:25.935Z,2.80
2019-05-23T02:41:30.098Z,2.60
2019-05-23T02:44:06.000Z,2.80
2019-05-23T02:46:51.797Z,2.97
2019-05-23T02:49:24.689Z,2.80
2019-05-23T02:51:54.923Z,2.73
2019-05-23T02:54:26.109Z,2.70
2019-05-23T02:56:56.499Z,2.47
2019-05-23T02:59:46.352Z,2.47
2019-05-23T03:03:02.481Z,2.90
2019-05-23T03:05:34.868Z,2.90
2019-05-23T03:08:05.348Z,2.70
2019-05-23T03:10:54.614Z,2.47
2019-05-23T03:13:28.029Z,2.70
2019-05-23T03:15:58.750Z,2.67
2019-05-23T03:18:34.369Z,2.37
2019-05-23T03:21:03.947Z,2.40
2019-05-23T03:23:34.180Z,2.70
2019-05-23T03:26:51.677Z,2.80
2019-05-23T03:29:22.463Z,2.67
2019-05-23T03:32:02.110Z,2.90
2019-05-23T03:34:33.804Z,2.70
2019-05-23T03:37:03.826Z,2.90
2019-05-23T03:39:33.918Z,2.67
2019-05-23T03:42:04.228Z,2.83
2019-05-23T03:44:34.074Z,2.70
2019-05-23T03:47:05.769Z,2.70
2019-05-23T03:49:36.663Z,2.80
2019-05-23T03:52:08.259Z,2.53
2019-05-23T03:54:40.037Z,2.67
2019-05-23T03:57:11.353Z,2.80
2019-05-23T03:59:42.246Z,2.53
2019-05-23T04:02:15.408Z,2.60
2019-05-23T04:04:45.744Z,2.70
2019-05-23T04:07:15.585Z,2.70
2019-05-23T04:09:46.091Z,3.00
2019-05-23T04:12:16.169Z,2.63
2019-05-23T04:14:46.621Z,2.73
2019-05-23T04:17:16.827Z,2.97
2019-05-23T04:19:47.726Z,2.60
2019-05-23T04:22:17.687Z,2.80
2019-05-23T04:24:47.886Z,2.60
2019-05-23T04:27:17.938Z,2.67
2019-05-23T04:29:48.077Z,3.20
2019-05-23T04:32:18.379Z,2.67
2019-05-23T04:34:49.118Z,2.70
2019-05-23T04:37:19.044Z,2.60
2019-05-23T04:39:48.995Z,2.77
2019-05-23T04:42:18.923Z,2.60
2019-05-23T04:44:49.000Z,2.40
2019-05-23T04:47:19.754Z,2.63
2019-05-23T04:49:49.629Z,2.73
2019-05-23T04:52:20.990Z,3.00
2019-05-23T04:54:51.021Z,2.70
2019-05-23T04:57:22.524Z,2.70
2019-05-23T04:59:53.055Z,2.87
2019-05-23T05:02:26.909Z,2.63
2019-05-23T05:04:54.692Z,2.70
2019-05-23T05:07:26.420Z,2.60
2019-05-23T05:09:56.266Z,2.73
2019-05-23T05:12:26.714Z,2.70
2019-05-23T05:14:56.938Z,2.50
2019-05-23T05:17:26.858Z,2.90
2019-05-23T05:19:56.710Z,2.50
2019-05-23T05:22:26.750Z,2.83
2019-05-23T05:24:56.647Z,2.60
2019-05-23T05:27:26.696Z,2.80
2019-05-23T05:29:56.571Z,2.50
2019-05-23T05:32:43.530Z,2.50
2019-05-23T05:35:00.629Z,2.70
2019-05-23T05:37:30.647Z,2.70
2019-05-23T05:40:01.890Z,2.67
2019-05-23T05:42:32.257Z,2.80
2019-05-23T05:45:02.415Z,2.93
2019-05-23T05:47:32.337Z,2.60
2019-05-23T05:50:02.698Z,2.87
2019-05-23T05:52:32.644Z,3.03
2019-05-23T05:55:02.711Z,3.07
2019-05-23T05:57:32.686Z,2.80
2019-05-23T06:00:02.618Z,2.80
2019-05-23T06:02:32.531Z,3.00
2019-05-23T06:05:03.788Z,2.80
2019-05-23T06:07:38.185Z,2.73
2019-05-23T06:10:11.314Z,3.30
2019-05-23T06:12:41.187Z,2.70
2019-05-23T06:15:11.119Z,2.93
2019-05-23T06:17:41.821Z,2.90
2019-05-23T06:20:11.789Z,2.73
2019-05-23T06:22:42.158Z,2.70
2019-05-23T06:25:13.067Z,2.80
2019-05-23T06:27:42.973Z,2.90
2019-05-23T06:30:13.797Z,2.50
2019-05-23T06:32:43.807Z,3.00
2019-05-23T06:35:13.687Z,2.83
2019-05-23T06:37:43.722Z,2.83
2019-05-23T06:40:13.885Z,2.67
2019-05-23T06:42:44.388Z,2.90
2019-05-23T06:45:15.756Z,3.00
2019-05-23T06:47:45.673Z,2.70
2019-05-23T06:50:18.059Z,3.00
2019-05-23T06:52:48.022Z,3.10
2019-05-23T06:55:18.053Z,3.33
2019-05-23T06:57:48.088Z,2.77
2019-05-23T07:00:20.710Z,3.27
2019-05-23T07:02:50.691Z,3.00
2019-05-23T07:05:21.711Z,3.00
2019-05-23T07:07:51.735Z,2.80
2019-05-23T07:10:22.993Z,3.03
2019-05-23T07:12:52.936Z,3.00
2019-05-23T07:15:23.131Z,3.10
2019-05-23T07:17:53.074Z,3.17
2019-05-23T07:20:23.383Z,2.80
2019-05-23T07:22:53.311Z,3.27
2019-05-23T07:25:23.263Z,2.93
2019-05-23T07:27:53.387Z,3.10
2019-05-23T07:30:24.371Z,3.37
2019-05-23T07:32:54.307Z,3.03
2019-05-23T07:35:24.433Z,2.80
2019-05-23T07:37:54.605Z,2.90
2019-05-23T07:40:24.734Z,3.37
2019-05-23T07:42:55.119Z,3.00
2019-05-23T07:45:30.063Z,3.20
2019-05-23T07:48:00.392Z,3.20
2019-05-23T07:50:30.319Z,3.00
2019-05-23T07:53:00.515Z,3.30
2019-05-23T07:55:36.124Z,2.70
2019-05-23T07:58:07.319Z,3.20
2019-05-23T08:00:40.650Z,2.70
2019-05-23T08:03:11.137Z,3.00
2019-05-23T08:05:41.456Z,3.27
2019-05-23T08:08:11.374Z,2.83
2019-05-23T08:10:41.313Z,3.00
2019-05-23T08:13:11.327Z,2.97
2019-05-23T08:15:41.318Z,2.83
2019-05-23T08:18:12.239Z,2.90
2019-05-23T08:20:42.463Z,3.13
2019-05-23T08:23:12.456Z,3.03
2019-05-23T08:25:42.302Z,2.90
2019-05-23T08:28:12.637Z,3.10
2019-05-23T08:30:42.763Z,2.50
2019-05-23T08:33:14.275Z,2.80
2019-05-23T08:35:44.672Z,3.10
2019-05-23T08:38:14.606Z,2.80
2019-05-23T08:40:44.577Z,2.73
2019-05-23T08:43:14.674Z,3.00
2019-05-23T08:45:44.822Z,2.90
2019-05-23T08:48:14.782Z,2.60
2019-05-23T08:50:45.154Z,2.90
2019-05-23T08:53:15.052Z,2.90
2019-05-23T08:55:44.926Z,2.60
2019-05-23T08:58:15.164Z,2.90
2019-05-23T09:00:45.749Z,2.60
2019-05-23T09:03:17.137Z,2.60
2019-05-23T09:05:48.151Z,2.53
2019-05-23T09:08:19.629Z,2.77
2019-05-23T09:10:50.712Z,2.63
2019-05-23T09:13:20.559Z,2.50
2019-05-23T09:15:52.959Z,2.70
2019-05-23T09:18:22.342Z,2.70
2019-05-23T09:20:52.537Z,2.70
2019-05-23T09:23:22.666Z,2.77
2019-05-23T09:25:52.519Z,2.73
2019-05-23T09:28:22.444Z,2.90
2019-05-23T09:30:52.669Z,2.80
2019-05-23T09:33:22.586Z,2.60
2019-05-23T09:35:52.624Z,2.77
2019-05-23T09:38:22.614Z,2.53
2019-05-23T09:40:52.607Z,2.50
2019-05-23T09:43:22.626Z,2.93
2019-05-23T09:45:52.544Z,2.80
2019-05-23T09:48:22.458Z,2.60
2019-05-23T09:50:52.383Z,2.70
2019-05-23T09:53:22.311Z,2.43
2019-05-23T09:55:55.279Z,2.70
2019-05-23T09:58:23.867Z,2.57
2019-05-23T10:00:53.798Z,2.80
2019-05-23T10:03:23.816Z,2.63
2019-05-23T10:05:53.954Z,2.57
2019-05-23T10:08:23.879Z,2.67
2019-05-23T10:10:53.736Z,2.57
2019-05-23T10:13:37.813Z,2.50
2019-05-23T10:16:01.218Z,2.43
2019-05-23T10:18:31.142Z,2.70
2019-05-23T10:21:01.201Z,2.60
2019-05-23T10:23:31.139Z,2.60
2019-05-23T10:26:00.988Z,2.97
2019-05-23T10:28:31.983Z,2.67
2019-05-23T10:31:02.006Z,2.50
2019-05-23T10:33:31.858Z,2.77
2019-05-23T10:36:01.774Z,2.60
2019-05-23T10:38:31.703Z,2.53
2019-05-23T10:41:02.100Z,2.67
2019-05-23T10:43:31.943Z,2.97
2019-05-23T10:46:01.795Z,2.60
2019-05-23T10:48:32.616Z,2.70
2019-05-23T10:51:02.956Z,2.50
2019-05-23T10:53:33.134Z,2.60
2019-05-23T10:56:03.008Z,2.47
2019-05-23T10:58:33.058Z,3.00
2019-05-23T11:01:02.936Z,2.43
2019-05-23T11:03:33.434Z,2.47
2019-05-23T11:06:15.466Z,2.80
2019-05-23T11:08:36.411Z,2.73
2019-05-23T11:11:06.800Z,2.60
2019-05-23T11:13:36.711Z,3.10
2019-05-23T11:16:06.714Z,2.47
2019-05-23T11:18:36.715Z,2.70
2019-05-23T11:21:06.587Z,2.77
2019-05-23T11:23:44.045Z,2.70
2019-05-23T11:26:13.967Z,2.87
2019-05-23T11:28:43.984Z,3.10
2019-05-23T11:31:14.462Z,3.17
2019-05-23T11:33:44.419Z,2.70
2019-05-23T11:36:14.363Z,2.80
2019-05-23T11:38:44.293Z,3.03
2019-05-23T11:41:14.151Z,3.03
2019-05-23T11:43:44.663Z,2.90
2019-05-23T11:46:21.557Z,2.87
2019-05-23T11:48:51.684Z,3.10
2019-05-23T11:51:25.267Z,3.07
2019-05-23T11:54:06.788Z,3.20
2019-05-23T11:56:25.368Z,2.97
2019-05-23T11:58:55.297Z,2.90
2019-05-23T12:01:32.504Z,3.10
2019-05-23T12:04:06.323Z,3.50
2019-05-23T12:06:54.514Z,3.10
2019-05-23T12:09:14.963Z,2.80
2019-05-23T12:11:45.275Z,3.03
2019-05-23T12:14:15.199Z,3.07
2019-05-23T12:16:45.229Z,3.07
2019-05-23T12:19:15.266Z,3.17
2019-05-23T12:21:45.290Z,3.00
2019-05-23T12:24:15.491Z,2.80
2019-05-23T12:26:45.556Z,2.90
2019-05-23T12:29:15.587Z,3.23
2019-05-23T12:31:49.176Z,2.93
2019-05-23T12:34:17.578Z,3.10
2019-05-23T12:36:47.541Z,3.00
2019-05-23T12:39:17.458Z,2.87
2019-05-23T12:41:47.402Z,2.90
2019-05-23T12:44:18.040Z,2.80
2019-05-23T12:46:48.334Z,2.93
2019-05-23T12:49:43.147Z,3.30
2019-05-23T12:52:17.049Z,3.30
2019-05-23T12:54:46.888Z,2.90
2019-05-23T12:57:16.846Z,3.10
2019-05-23T12:59:46.829Z,3.00
2019-05-23T13:02:21.645Z,3.03
2019-05-23T13:04:51.769Z,3.37
2019-05-23T13:07:34.961Z,3.20
2019-05-23T13:09:54.051Z,2.97
2019-05-23T13:12:23.896Z,3.30
2019-05-23T13:14:58.457Z,3.10
2019-05-23T13:17:25.293Z,2.93
2019-05-23T13:19:55.255Z,3.07
2019-05-23T13:22:26.176Z,3.10
2019-05-23T13:24:56.168Z,3.20
2019-05-23T13:27:45.197Z,3.17
2019-05-23T13:30:15.619Z,3.30
2019-05-23T13:32:45.473Z,3.13
2019-05-23T13:35:15.416Z,3.10
2019-05-23T13:37:53.650Z,3.30
2019-05-23T13:40:19.763Z,3.37
2019-05-23T13:42:50.035Z,3.10
2019-05-23T13:45:19.875Z,3.10
2019-05-23T13:47:49.891Z,3.03
2019-05-23T13:50:20.125Z,3.47
2019-05-23T13:52:50.584Z,3.20
2019-05-23T13:55:20.512Z,3.80
2019-05-23T13:57:50.374Z,3.40
2019-05-23T14:00:21.315Z,3.40
2019-05-23T14:02:51.347Z,3.50
2019-05-23T14:05:21.850Z,3.60
2019-05-23T14:07:52.041Z,3.37
2019-05-23T14:10:23.377Z,3.40
2019-05-23T14:12:53.303Z,3.40
2019-05-23T14:15:26.424Z,3.47
2019-05-23T14:17:56.433Z,3.80
2019-05-23T14:20:26.718Z,3.47
2019-05-23T14:23:01.926Z,3.70
2019-05-23T14:25:31.970Z,3.93
2019-05-23T14:28:05.720Z,3.40
2019-05-23T14:30:48.942Z,4.20
2019-05-23T14:33:26.923Z,3.90
2019-05-23T14:35:57.503Z,3.40
2019-05-23T14:38:31.428Z,3.80
2019-05-23T14:41:01.313Z,3.70
2019-05-23T14:43:31.253Z,3.70
2019-05-23T14:46:10.842Z,3.77
2019-05-23T14:48:49.397Z,4.00
2019-05-23T14:51:41.063Z,4.17
2019-05-23T14:54:16.579Z,4.10
2019-05-23T14:56:46.881Z,3.80
2019-05-23T14:59:17.093Z,3.80
2019-05-23T15:01:47.131Z,3.60
2019-05-23T15:04:16.995Z,3.57
2019-05-23T15:06:47.162Z,3.83
2019-05-23T15:09:21.137Z,4.00
2019-05-23T15:11:49.167Z,4.03
2019-05-23T15:14:19.237Z,3.57
2019-05-23T15:16:49.264Z,3.90
2019-05-23T15:19:38.776Z,3.73
2019-05-23T15:21:50.856Z,3.83
2019-05-23T15:24:20.931Z,4.10
2019-05-23T15:26:50.870Z,4.00
2019-05-23T15:29:20.929Z,3.53
2019-05-23T15:32:01.718Z,3.80
2019-05-23T15:34:22.403Z,4.10
2019-05-23T15:36:52.333Z,4.00
2019-05-23T15:39:23.524Z,4.00
2019-05-23T15:41:53.492Z,3.60
2019-05-23T15:44:27.852Z,3.70
2019-05-23T15:46:55.165Z,3.93
2019-05-23T15:49:25.465Z,3.90
2019-05-23T15:52:20.482Z,3.73
2019-05-23T15:54:54.675Z,3.93
2019-05-23T15:57:49.187Z,4.10
2019-05-23T16:00:53.215Z,4.07
2019-05-23T16:03:36.742Z,4.07
2019-05-23T16:06:09.287Z,4.10
2019-05-23T16:08:39.313Z,4.13
2019-05-23T16:11:09.172Z,4.00
2019-05-23T16:13:39.037Z,4.30
2019-05-23T16:16:09.885Z,4.00
2019-05-23T16:18:39.969Z,3.80
2019-05-23T16:21:11.263Z,4.07
2019-05-23T16:23:41.212Z,4.07
2019-05-23T16:26:11.836Z,4.20
2019-05-23T16:28:41.949Z,4.30
2019-05-23T16:31:12.406Z,4.07
2019-05-23T16:33:42.419Z,4.40
2019-05-23T16:36:12.319Z,4.23
2019-05-23T16:38:42.310Z,4.63
2019-05-23T16:41:12.162Z,4.40
2019-05-23T16:43:42.103Z,4.33
2019-05-23T16:46:12.158Z,4.17
2019-05-23T16:48:42.015Z,4.50
2019-05-23T16:51:11.970Z,4.97
2019-05-23T16:53:41.834Z,4.70
2019-05-23T16:56:16.808Z,4.67
2019-05-23T16:58:57.104Z,4.47
2019-05-23T17:01:54.807Z,4.03
2019-05-23T17:04:34.933Z,4.50
2019-05-23T17:07:24.561Z,4.23
2019-05-23T17:10:13.591Z,4.00
2019-05-23T17:13:15.033Z,4.73
2019-05-23T17:15:59.981Z,4.80
2019-05-23T17:18:47.990Z,4.40
2019-05-23T17:21:33.910Z,3.97
2019-05-23T17:24:25.692Z,3.87
2019-05-23T17:27:03.503Z,4.20
2019-05-23T17:29:39.207Z,4.23
2019-05-23T17:32:10.946Z,4.20
2019-05-23T17:34:48.910Z,4.30
2019-05-23T17:37:23.639Z,4.00
2019-05-23T17:39:54.141Z,4.47
2019-05-23T17:42:24.186Z,4.07
2019-05-23T17:45:00.453Z,4.40
2019-05-23T17:47:30.866Z,4.00
2019-05-23T17:50:01.035Z,4.33
2019-05-23T17:52:31.327Z,4.00
2019-05-23T17:55:01.178Z,5.10
2019-05-23T17:57:32.114Z,4.30
2019-05-23T18:00:02.217Z,4.20
2019-05-23T18:02:32.185Z,4.27
2019-05-23T18:05:02.050Z,4.10
2019-05-23T18:07:33.931Z,4.13
2019-05-23T18:10:05.082Z,4.17
2019-05-23T18:12:35.126Z,3.97
2019-05-23T18:15:06.517Z,4.10
2019-05-23T18:17:37.133Z,4.60
2019-05-23T18:20:08.326Z,4.00
2019-05-23T18:22:39.598Z,3.97
2019-05-23T18:25:11.747Z,4.47
2019-05-23T18:27:41.722Z,4.20
2019-05-23T18:30:22.792Z,4.47
2019-05-23T18:32:54.108Z,4.30
2019-05-23T18:35:24.143Z,3.77
2019-05-23T18:37:54.299Z,4.23
2019-05-23T18:40:24.313Z,4.60
2019-05-23T18:42:54.487Z,4.30
2019-05-23T18:45:24.627Z,4.30
2019-05-23T18:47:54.630Z,4.43
2019-05-23T18:50:24.611Z,4.50
2019-05-23T18:52:54.595Z,4.27
2019-05-23T18:55:24.689Z,5.07
2019-05-23T18:57:55.237Z,4.47
2019-05-23T19:00:57.871Z,4.40
2019-05-23T19:03:28.029Z,4.90
2019-05-23T19:05:58.054Z,4.77
2019-05-23T19:08:27.935Z,4.83
2019-05-23T19:10:58.329Z,4.70
2019-05-23T19:13:28.401Z,4.70
2019-05-23T19:15:58.418Z,4.20
2019-05-23T19:18:29.771Z,4.50
2019-05-23T19:21:00.506Z,4.87
2019-05-23T19:23:31.002Z,4.80
2019-05-23T19:26:01.807Z,5.20
2019-05-23T19:28:32.025Z,5.40
2019-05-23T19:31:02.693Z,5.43
2019-05-23T19:33:33.118Z,5.30
2019-05-23T19:36:03.303Z,5.30
2019-05-23T19:38:33.358Z,5.80
2019-05-23T19:41:04.017Z,6.20
2019-05-23T19:43:34.218Z,4.93
2019-05-23T19:46:04.271Z,5.17
2019-05-23T19:48:34.869Z,5.27
2019-05-23T19:51:05.460Z,5.60
2019-05-23T19:53:35.536Z,4.90
2019-05-23T19:56:06.964Z,5.10
2019-05-23T19:58:37.012Z,4.90
2019-05-23T20:01:07.931Z,4.93
2019-05-23T20:03:37.850Z,4.63
2019-05-23T20:06:09.444Z,4.97
2019-05-23T20:08:39.630Z,4.97
2019-05-23T20:11:09.731Z,4.80
2019-05-23T20:13:39.848Z,5.23
2019-05-23T20:16:10.214Z,5.03
2019-05-23T20:18:40.719Z,4.83
2019-05-23T20:21:10.702Z,4.97
2019-05-23T20:23:41.313Z,4.90
2019-05-23T20:26:11.436Z,4.80
2019-05-23T20:28:41.424Z,4.90
2019-05-23T20:31:11.503Z,4.73
2019-05-23T20:33:41.542Z,4.83
2019-05-23T20:36:14.571Z,4.77
2019-05-23T20:38:45.099Z,5.00
2019-05-23T20:41:15.607Z,5.10
2019-05-23T20:43:45.762Z,5.00
2019-05-23T20:46:16.000Z,4.60
2019-05-23T20:48:46.049Z,5.10
2019-05-23T20:51:16.207Z,4.90
2019-05-23T20:53:46.220Z,4.80
2019-05-23T20:56:16.302Z,5.10
2019-05-23T20:58:46.190Z,4.80
2019-05-23T21:01:23.385Z,4.80
2019-05-23T21:03:54.674Z,4.97
2019-05-23T21:06:24.682Z,5.00
2019-05-23T21:08:54.739Z,4.60
2019-05-23T21:11:24.616Z,4.80
2019-05-23T21:13:54.631Z,4.73
2019-05-23T21:16:24.688Z,4.80
2019-05-23T21:18:54.688Z,4.80
2019-05-23T21:21:24.586Z,4.60
2019-05-23T21:23:57.043Z,4.57
2019-05-23T21:26:27.402Z,5.20
2019-05-23T21:28:57.385Z,4.67
2019-05-23T21:31:28.597Z,5.20
2019-05-23T21:33:58.470Z,4.50
2019-05-23T21:36:28.447Z,5.17
2019-05-23T21:38:58.406Z,4.60
2019-05-23T21:41:28.274Z,4.80
2019-05-23T21:43:59.237Z,4.97
2019-05-23T21:46:29.228Z,4.30
2019-05-23T21:48:59.131Z,4.77
2019-05-23T21:51:29.077Z,4.53
2019-05-23T21:53:59.168Z,4.70
2019-05-23T21:56:29.079Z,4.53
2019-05-23T21:58:59.059Z,4.47
2019-05-23T22:02:03.121Z,4.80
2019-05-23T22:04:50.085Z,4.50
2019-05-23T22:07:19.959Z,4.80
2019-05-23T22:09:50.026Z,4.40
2019-05-23T22:12:19.808Z,4.70
2019-05-23T22:14:51.098Z,4.50
2019-05-23T22:17:22.650Z,4.50
2019-05-23T22:19:52.720Z,4.50
2019-05-23T22:22:22.659Z,4.30
2019-05-23T22:24:52.502Z,4.90
2019-05-23T22:27:22.846Z,4.67
2019-05-23T22:29:53.802Z,4.37
2019-05-23T22:32:25.302Z,4.67
2019-05-23T22:35:02.842Z,4.47
2019-05-23T22:37:32.781Z,4.23
2019-05-23T22:40:02.808Z,4.17
2019-05-23T22:42:34.699Z,4.50
2019-05-23T22:45:06.962Z,4.10
2019-05-23T22:47:36.833Z,4.20
2019-05-23T22:50:06.899Z,4.17
2019-05-23T22:52:36.802Z,4.20
2019-05-23T22:55:06.950Z,4.43
2019-05-23T22:57:36.957Z,4.63
2019-05-23T23:00:06.899Z,4.20
2019-05-23T23:02:36.857Z,4.17
2019-05-23T23:05:06.709Z,4.13
2019-05-23T23:07:36.581Z,4.03
2019-05-23T23:10:06.583Z,4.27
2019-05-23T23:12:36.435Z,4.60
2019-05-23T23:15:06.738Z,4.17
2019-05-23T23:17:36.597Z,4.50
2019-05-23T23:20:06.858Z,4.10
2019-05-23T23:22:37.228Z,3.87
2019-05-23T23:25:07.031Z,3.80
2019-05-23T23:27:36.912Z,4.20
2019-05-23T23:30:06.832Z,4.10
2019-05-23T23:32:36.927Z,4.10
2019-05-23T23:35:06.874Z,3.90
2019-05-23T23:37:36.861Z,3.70
2019-05-23T23:40:07.545Z,3.90
2019-05-23T23:42:37.541Z,3.93
2019-05-23T23:45:25.282Z,4.13
2019-05-23T23:48:12.847Z,3.90
2019-05-23T23:51:00.714Z,4.10
2019-05-23T23:53:48.818Z,4.37
2019-05-23T23:56:36.508Z,3.50
2019-05-23T23:59:06.550Z,3.70
